createdAt,value
2023-01-17T00:01:34.008Z,6.68
2023-01-17T00:04:20.558Z,4.63
2023-01-17T00:07:06.002Z,8.60
2023-01-17T00:09:51.875Z,6.97
2023-01-17T00:12:20.594Z,5.28
2023-01-17T00:14:48.586Z,2.20
2023-01-17T00:17:15.541Z,1.70
2023-01-17T00:20:01.394Z,4.13
2023-01-17T00:22:50.370Z,3.75
2023-01-17T00:25:38.686Z,2.60
2023-01-17T00:28:05.918Z,2.22
2023-01-17T00:30:33.542Z,1.90
2023-01-17T00:33:00.847Z,1.60
2023-01-17T00:35:30.726Z,2.75
2023-01-17T00:38:18.207Z,4.38
2023-01-17T00:40:46.775Z,3.40
2023-01-17T00:43:34.895Z,4.13
2023-01-17T00:46:21.514Z,5.20
2023-01-17T00:49:06.849Z,6.63
2023-01-17T00:51:53.259Z,5.03
2023-01-17T00:54:38.778Z,3.85
2023-01-17T00:57:25.659Z,12.40
2023-01-17T01:00:10.990Z,8.40
2023-01-17T01:02:57.269Z,4.30
2023-01-17T01:05:43.070Z,3.55
2023-01-17T01:08:40.269Z,1.48
2023-01-17T01:11:32.869Z,12.93
2023-01-17T01:14:19.785Z,9.70
2023-01-17T01:17:05.834Z,6.70
2023-01-17T01:19:52.706Z,4.35
2023-01-17T01:22:38.243Z,4.72
2023-01-17T01:25:24.317Z,8.80
2023-01-17T01:28:09.828Z,5.30
2023-01-17T01:30:55.716Z,3.65
2023-01-17T01:33:22.623Z,1.75
2023-01-17T01:35:54.599Z,1.50
2023-01-17T01:38:24.211Z,1.27
2023-01-17T01:40:54.024Z,1.50
2023-01-17T01:43:41.188Z,1.80
2023-01-17T01:46:11.324Z,1.40
2023-01-17T01:48:55.811Z,2.10
2023-01-17T01:51:28.033Z,2.80
2023-01-17T01:54:02.120Z,2.27
2023-01-17T01:56:30.353Z,2.97
2023-01-17T01:58:58.478Z,20.63
2023-01-17T02:01:26.576Z,19.25
2023-01-17T02:03:53.597Z,11.00
2023-01-17T02:06:30.031Z,20.03
2023-01-17T02:09:04.058Z,9.27
2023-01-17T02:11:32.329Z,18.77
2023-01-17T02:13:59.217Z,22.00
2023-01-17T02:16:44.540Z,29.65
2023-01-17T02:19:30.971Z,12.20
2023-01-17T02:22:32.438Z,9.20
2023-01-17T02:25:12.888Z,4.10
2023-01-17T02:28:00.531Z,4.05
2023-01-17T02:30:38.864Z,12.32
2023-01-17T02:33:32.035Z,6.83
2023-01-17T02:36:17.980Z,12.60
2023-01-17T02:39:18.008Z,25.35
2023-01-17T02:41:47.551Z,10.25
2023-01-17T02:44:20.445Z,5.13
2023-01-17T02:46:52.506Z,2.40
2023-01-17T02:49:23.338Z,1.60
2023-01-17T02:52:19.523Z,1.30
2023-01-17T02:55:03.710Z,1.10
2023-01-17T02:58:04.679Z,1.13
2023-01-17T03:00:50.708Z,1.20
2023-01-17T03:03:28.185Z,1.40
2023-01-17T03:06:02.419Z,1.27
2023-01-17T03:08:30.770Z,1.02
2023-01-17T03:10:58.611Z,1.23
2023-01-17T03:13:25.487Z,1.23
2023-01-17T03:15:52.705Z,1.20
2023-01-17T03:18:19.610Z,1.23
2023-01-17T03:20:46.995Z,1.10
2023-01-17T03:23:13.832Z,1.65
2023-01-17T03:25:40.945Z,1.30
2023-01-17T03:28:08.303Z,2.70
2023-01-17T03:30:35.509Z,3.85
2023-01-17T03:33:02.957Z,3.50
2023-01-17T03:35:30.126Z,2.60
2023-01-17T03:37:56.946Z,1.90
2023-01-17T03:40:24.052Z,2.90
2023-01-17T03:42:50.924Z,2.10
2023-01-17T03:45:18.450Z,2.08
2023-01-17T03:47:45.302Z,2.47
2023-01-17T03:50:13.407Z,3.10
2023-01-17T03:52:40.366Z,5.03
2023-01-17T03:55:08.040Z,6.78
2023-01-17T03:57:34.818Z,8.50
2023-01-17T04:00:01.996Z,5.55
2023-01-17T04:02:28.861Z,3.30
2023-01-17T04:04:56.080Z,2.50
2023-01-17T04:07:23.096Z,1.85
2023-01-17T04:09:50.250Z,1.75
2023-01-17T04:12:17.125Z,1.40
2023-01-17T04:14:44.644Z,1.50
2023-01-17T04:17:16.440Z,1.40
2023-01-17T04:19:43.653Z,1.10
2023-01-17T04:22:10.427Z,1.10
2023-01-17T04:24:37.530Z,1.10
2023-01-17T04:27:05.477Z,1.20
2023-01-17T04:29:32.900Z,1.10
2023-01-17T04:31:59.753Z,1.02
2023-01-17T04:34:27.219Z,1.00
2023-01-17T04:36:54.016Z,0.90
2023-01-17T04:39:21.102Z,1.07
2023-01-17T04:41:47.963Z,1.05
2023-01-17T04:44:15.232Z,1.00
2023-01-17T04:46:42.008Z,1.10
2023-01-17T04:49:09.255Z,1.00
2023-01-17T04:51:36.467Z,1.17
2023-01-17T04:54:03.958Z,0.82
2023-01-17T04:56:30.740Z,1.08
2023-01-17T04:58:58.495Z,1.08
2023-01-17T05:01:25.873Z,0.82
2023-01-17T05:03:53.078Z,0.97
2023-01-17T05:06:19.838Z,1.20
2023-01-17T05:08:46.991Z,1.10
2023-01-17T05:11:13.813Z,1.30
2023-01-17T05:13:41.057Z,1.20
2023-01-17T05:16:08.013Z,1.30
2023-01-17T05:18:35.246Z,0.90
2023-01-17T05:21:03.576Z,1.02
2023-01-17T05:23:31.442Z,1.10
2023-01-17T05:25:58.474Z,1.30
2023-01-17T05:28:25.672Z,1.43
2023-01-17T05:30:52.553Z,1.60
2023-01-17T05:33:19.772Z,1.80
2023-01-17T05:35:46.572Z,1.30
2023-01-17T05:38:13.686Z,1.40
2023-01-17T05:40:40.475Z,1.30
2023-01-17T05:43:08.891Z,1.50
2023-01-17T05:45:36.127Z,1.80
2023-01-17T05:48:03.590Z,1.17
2023-01-17T05:50:36.427Z,1.02
2023-01-17T05:53:09.132Z,1.20
2023-01-17T05:55:36.536Z,1.30
2023-01-17T05:58:04.172Z,1.50
2023-01-17T06:00:31.866Z,2.10
2023-01-17T06:03:00.685Z,1.80
2023-01-17T06:05:28.811Z,1.60
2023-01-17T06:07:56.680Z,1.50
2023-01-17T06:10:24.147Z,1.60
2023-01-17T06:13:00.976Z,1.90
2023-01-17T06:15:27.813Z,2.03
2023-01-17T06:17:55.260Z,2.33
2023-01-17T06:20:22.105Z,2.00
2023-01-17T06:22:49.389Z,2.13
2023-01-17T06:25:16.301Z,2.35
2023-01-17T06:27:43.415Z,2.65
2023-01-17T06:30:10.813Z,2.33
2023-01-17T06:32:37.995Z,3.05
2023-01-17T06:35:04.997Z,2.30
2023-01-17T06:37:32.143Z,3.58
2023-01-17T06:39:58.957Z,5.35
2023-01-17T06:42:26.082Z,5.97
2023-01-17T06:44:52.855Z,5.32
2023-01-17T06:47:19.955Z,6.50
2023-01-17T06:49:46.887Z,6.70
2023-01-17T06:52:14.014Z,6.20
2023-01-17T06:54:40.811Z,6.13
2023-01-17T06:57:07.927Z,4.80
2023-01-17T06:59:34.794Z,4.60
2023-01-17T07:02:01.899Z,3.05
2023-01-17T07:04:28.701Z,2.63
2023-01-17T07:06:55.823Z,2.40
2023-01-17T07:09:22.630Z,3.95
2023-01-17T07:11:51.912Z,4.72
2023-01-17T07:14:18.750Z,5.38
2023-01-17T07:16:46.273Z,6.05
2023-01-17T07:19:13.291Z,6.60
2023-01-17T07:21:40.951Z,7.07
2023-01-17T07:24:09.229Z,7.25
2023-01-17T07:26:38.138Z,4.70
2023-01-17T07:29:05.302Z,5.25
2023-01-17T07:31:36.887Z,5.23
2023-01-17T07:34:04.058Z,4.70
2023-01-17T07:36:31.163Z,3.13
2023-01-17T07:38:58.013Z,2.67
2023-01-17T07:41:25.507Z,2.10
2023-01-17T07:43:52.659Z,1.93
2023-01-17T07:46:20.155Z,1.67
2023-01-17T07:48:46.967Z,1.98
2023-01-17T07:51:14.147Z,3.63
2023-01-17T07:53:40.971Z,4.03
2023-01-17T07:56:08.294Z,3.13
2023-01-17T07:58:35.754Z,3.95
2023-01-17T08:01:11.450Z,4.25
2023-01-17T08:03:40.379Z,6.05
2023-01-17T08:06:18.595Z,6.68
2023-01-17T08:08:46.397Z,5.10
2023-01-17T08:11:14.090Z,5.15
2023-01-17T08:13:41.985Z,4.03
2023-01-17T08:16:13.501Z,4.70
2023-01-17T08:18:40.638Z,5.22
2023-01-17T08:21:18.651Z,4.67
2023-01-17T08:23:49.619Z,3.80
2023-01-17T08:26:23.498Z,3.83
2023-01-17T08:29:00.515Z,3.65
2023-01-17T08:31:29.715Z,3.33
2023-01-17T08:33:57.271Z,3.10
2023-01-17T08:36:28.910Z,2.95
2023-01-17T08:38:55.881Z,3.20
2023-01-17T08:41:24.431Z,3.17
2023-01-17T08:43:52.087Z,4.10
2023-01-17T08:46:19.755Z,3.60
2023-01-17T08:48:46.637Z,3.20
2023-01-17T08:51:13.933Z,2.97
2023-01-17T08:53:40.843Z,3.65
2023-01-17T08:56:09.194Z,3.95
2023-01-17T08:58:35.987Z,3.00
2023-01-17T09:01:06.658Z,3.33
2023-01-17T09:03:34.680Z,3.00
2023-01-17T09:06:07.461Z,3.55
2023-01-17T09:08:34.985Z,3.10
2023-01-17T09:11:10.527Z,3.67
2023-01-17T09:13:38.947Z,3.90
2023-01-17T09:16:06.951Z,3.80
2023-01-17T09:18:35.077Z,3.10
2023-01-17T09:21:13.610Z,2.88
2023-01-17T09:23:40.670Z,2.90
2023-01-17T09:26:08.112Z,3.33
2023-01-17T09:28:41.092Z,2.95
2023-01-17T09:31:08.954Z,3.17
2023-01-17T09:33:36.473Z,3.38
2023-01-17T09:36:04.398Z,3.37
2023-01-17T09:38:32.515Z,4.25
2023-01-17T09:41:01.764Z,2.95
2023-01-17T09:43:52.244Z,3.55
2023-01-17T09:46:26.692Z,3.70
2023-01-17T09:49:03.298Z,3.40
2023-01-17T09:51:30.573Z,3.30
2023-01-17T09:53:57.506Z,3.88
2023-01-17T09:56:37.437Z,3.80
2023-01-17T09:59:35.285Z,3.75
2023-01-17T10:02:21.212Z,4.13
2023-01-17T10:04:58.587Z,4.30
2023-01-17T10:07:41.122Z,4.00
2023-01-17T10:10:26.937Z,3.80
2023-01-17T10:13:15.966Z,3.70
2023-01-17T10:16:01.619Z,4.13
2023-01-17T10:18:37.960Z,4.20
2023-01-17T10:21:14.668Z,4.65
2023-01-17T10:24:23.310Z,5.28
2023-01-17T10:26:53.520Z,4.70
2023-01-17T10:29:21.653Z,4.47
2023-01-17T10:31:55.795Z,4.40
2023-01-17T10:34:50.808Z,4.00
2023-01-17T10:37:24.378Z,4.07
2023-01-17T10:39:56.133Z,3.80
2023-01-17T10:42:51.847Z,4.20
2023-01-17T10:45:26.787Z,3.03
2023-01-17T10:48:05.397Z,3.70
2023-01-17T10:50:46.428Z,4.18
2023-01-17T10:53:29.971Z,4.30
2023-01-17T10:55:58.086Z,4.07
2023-01-17T10:58:25.519Z,4.20
2023-01-17T11:01:06.063Z,4.32
2023-01-17T11:03:34.805Z,3.72
2023-01-17T11:06:20.692Z,3.70
2023-01-17T11:08:58.371Z,3.77
2023-01-17T11:11:32.012Z,3.33
2023-01-17T11:14:04.159Z,3.30
2023-01-17T11:16:32.202Z,3.20
2023-01-17T11:19:16.271Z,3.05
2023-01-17T11:21:53.321Z,3.10
2023-01-17T11:24:28.354Z,2.83
2023-01-17T11:26:55.894Z,2.50
2023-01-17T11:29:29.688Z,2.53
2023-01-17T11:31:57.114Z,2.40
2023-01-17T11:34:26.919Z,2.70
2023-01-17T11:37:09.635Z,2.47
2023-01-17T11:39:36.429Z,2.40
2023-01-17T11:42:06.686Z,2.58
2023-01-17T11:44:35.622Z,2.88
2023-01-17T11:47:11.839Z,2.40
2023-01-17T11:49:43.743Z,2.72
2023-01-17T11:52:24.534Z,2.30
2023-01-17T11:54:54.457Z,2.65
2023-01-17T11:57:31.132Z,2.42
2023-01-17T12:00:24.274Z,2.00
2023-01-17T12:02:54.412Z,2.40
2023-01-17T12:05:48.391Z,2.50
2023-01-17T12:08:18.603Z,2.38
2023-01-17T12:11:02.996Z,2.47
2023-01-17T12:14:01.836Z,1.70
2023-01-17T12:16:43.748Z,2.10
2023-01-17T12:19:34.427Z,2.10
2023-01-17T12:22:04.005Z,2.53
2023-01-17T12:24:52.965Z,2.35
2023-01-17T12:27:57.500Z,2.07
2023-01-17T12:30:51.386Z,2.28
2023-01-17T12:33:46.157Z,1.80
2023-01-17T12:36:21.910Z,2.30
2023-01-17T12:38:48.872Z,2.50
2023-01-17T12:41:18.440Z,2.30
2023-01-17T12:43:45.935Z,2.20
2023-01-17T12:46:21.435Z,2.33
2023-01-17T12:48:55.341Z,2.30
2023-01-17T12:51:29.155Z,2.22
2023-01-17T12:54:20.420Z,2.17
2023-01-17T12:57:01.629Z,2.15
2023-01-17T12:59:53.844Z,2.22
2023-01-17T13:02:42.887Z,2.22
2023-01-17T13:05:09.787Z,4.30
2023-01-17T13:07:55.301Z,2.40
2023-01-17T13:10:32.242Z,2.38
2023-01-17T13:13:04.823Z,2.00
2023-01-17T13:15:37.675Z,2.30
2023-01-17T13:18:14.446Z,2.60
2023-01-17T13:21:07.826Z,2.30
2023-01-17T13:23:59.341Z,2.70
2023-01-17T13:26:32.031Z,2.70
2023-01-17T13:29:24.658Z,2.03
2023-01-17T13:32:12.951Z,2.25
2023-01-17T13:34:52.937Z,2.13
2023-01-17T13:37:46.239Z,2.38
2023-01-17T13:40:48.968Z,2.03
2023-01-17T13:43:26.014Z,1.88
2023-01-17T13:45:56.088Z,2.05
2023-01-17T13:48:23.302Z,1.90
2023-01-17T13:50:54.005Z,2.10
2023-01-17T13:53:46.168Z,1.75
2023-01-17T13:56:18.950Z,1.88
2023-01-17T13:58:54.512Z,2.35
2023-01-17T14:01:24.470Z,1.73
2023-01-17T14:03:54.305Z,1.77
2023-01-17T14:06:34.386Z,1.80
2023-01-17T14:09:20.167Z,1.65
2023-01-17T14:12:02.554Z,1.80
2023-01-17T14:14:41.785Z,1.67
2023-01-17T14:17:20.400Z,1.38
2023-01-17T14:19:53.168Z,1.35
2023-01-17T14:22:20.300Z,1.50
2023-01-17T14:25:10.139Z,1.60
2023-01-17T14:27:47.399Z,1.53
2023-01-17T14:30:17.739Z,1.45
2023-01-17T14:33:06.018Z,1.67
2023-01-17T14:35:36.000Z,1.83
2023-01-17T14:38:13.650Z,1.60
2023-01-17T14:40:40.463Z,2.10
2023-01-17T14:43:12.403Z,1.73
2023-01-17T14:45:41.262Z,1.42
2023-01-17T14:48:20.561Z,2.22
2023-01-17T14:50:49.603Z,1.63
2023-01-17T14:53:28.090Z,1.50
2023-01-17T14:56:01.107Z,1.55
2023-01-17T14:58:39.493Z,1.73
2023-01-17T15:01:14.321Z,1.35
2023-01-17T15:03:44.856Z,1.70
2023-01-17T15:06:20.774Z,2.00
2023-01-17T15:08:48.963Z,1.90
2023-01-17T15:11:36.347Z,1.52
2023-01-17T15:14:05.997Z,1.77
2023-01-17T15:16:36.629Z,1.67
2023-01-17T15:19:12.077Z,1.60
2023-01-17T15:21:43.055Z,1.65
2023-01-17T15:24:19.586Z,2.13
2023-01-17T15:26:46.459Z,1.63
2023-01-17T15:29:33.473Z,2.00
2023-01-17T15:32:03.230Z,1.80
2023-01-17T15:34:34.205Z,2.15
2023-01-17T15:37:08.080Z,1.80
2023-01-17T15:39:38.975Z,2.63
2023-01-17T15:42:19.241Z,2.30
2023-01-17T15:44:51.301Z,2.23
2023-01-17T15:47:33.626Z,2.63
2023-01-17T15:50:02.619Z,2.35
2023-01-17T15:52:29.623Z,2.30
2023-01-17T15:55:14.235Z,2.20
2023-01-17T15:57:47.544Z,2.10
2023-01-17T16:00:15.939Z,1.80
2023-01-17T16:02:44.065Z,1.75
2023-01-17T16:05:33.357Z,2.00
2023-01-17T16:08:03.348Z,2.03
2023-01-17T16:10:39.270Z,1.83
2023-01-17T16:13:08.752Z,2.10
2023-01-17T16:15:41.451Z,1.90
2023-01-17T16:18:25.922Z,2.03
2023-01-17T16:21:01.190Z,1.70
2023-01-17T16:23:28.630Z,1.93
2023-01-17T16:25:55.720Z,1.77
2023-01-17T16:28:22.864Z,1.85
2023-01-17T16:30:50.125Z,2.50
2023-01-17T16:33:17.069Z,3.03
2023-01-17T16:35:44.218Z,3.60
2023-01-17T16:38:14.164Z,3.10
2023-01-17T16:40:44.568Z,3.63
2023-01-17T16:43:12.712Z,4.30
2023-01-17T16:45:48.978Z,3.28
2023-01-17T16:48:18.339Z,3.10
2023-01-17T16:50:50.376Z,2.95
2023-01-17T16:53:24.279Z,2.72
2023-01-17T16:55:57.132Z,2.50
2023-01-17T16:58:24.323Z,3.60
2023-01-17T17:00:52.019Z,2.93
2023-01-17T17:03:22.638Z,2.65
2023-01-17T17:06:00.523Z,3.67
2023-01-17T17:08:29.527Z,3.80
2023-01-17T17:11:17.465Z,3.28
2023-01-17T17:13:46.285Z,2.60
2023-01-17T17:16:15.871Z,2.75
2023-01-17T17:18:43.134Z,2.33
2023-01-17T17:21:10.352Z,2.47
2023-01-17T17:23:37.316Z,2.90
2023-01-17T17:26:04.778Z,2.50
2023-01-17T17:28:31.625Z,2.70
2023-01-17T17:31:11.075Z,2.85
2023-01-17T17:33:38.825Z,2.70
2023-01-17T17:36:07.979Z,3.70
2023-01-17T17:38:35.136Z,2.60
2023-01-17T17:41:09.861Z,3.67
2023-01-17T17:43:38.674Z,4.80
2023-01-17T17:46:06.196Z,6.75
2023-01-17T17:48:33.130Z,4.43
2023-01-17T17:51:00.599Z,4.70
2023-01-17T17:53:27.797Z,3.40
2023-01-17T17:55:55.047Z,2.53
2023-01-17T17:58:23.164Z,2.90
2023-01-17T18:00:50.925Z,4.65
2023-01-17T18:03:17.737Z,6.33
2023-01-17T18:05:46.793Z,3.70
2023-01-17T18:08:13.701Z,3.38
2023-01-17T18:10:42.483Z,4.60
2023-01-17T18:13:09.429Z,7.93
2023-01-17T18:15:36.592Z,9.97
2023-01-17T18:18:03.455Z,8.40
2023-01-17T18:20:30.609Z,11.80
2023-01-17T18:22:57.683Z,9.57
2023-01-17T18:25:24.812Z,9.43
2023-01-17T18:27:52.314Z,8.47
2023-01-17T18:30:20.200Z,7.03
2023-01-17T18:32:49.933Z,6.30
2023-01-17T18:35:17.296Z,5.32
2023-01-17T18:37:44.112Z,4.95
2023-01-17T18:40:11.438Z,6.00
2023-01-17T18:42:39.067Z,5.05
2023-01-17T18:45:06.730Z,6.75
2023-01-17T18:47:33.533Z,4.93
2023-01-17T18:50:00.648Z,5.50
2023-01-17T18:52:27.463Z,7.00
2023-01-17T18:54:54.651Z,4.82
2023-01-17T18:57:21.449Z,3.92
2023-01-17T18:59:48.569Z,4.03
2023-01-17T19:02:15.748Z,4.30
2023-01-17T19:04:42.863Z,5.17
2023-01-17T19:07:12.511Z,5.25
2023-01-17T19:09:39.875Z,4.03
2023-01-17T19:12:07.687Z,3.40
2023-01-17T19:14:34.829Z,4.32
2023-01-17T19:17:01.824Z,4.17
2023-01-17T19:19:29.033Z,3.45
2023-01-17T19:21:55.785Z,5.38
2023-01-17T19:24:24.602Z,4.13
2023-01-17T19:26:53.423Z,3.75
2023-01-17T19:29:20.879Z,3.87
2023-01-17T19:31:48.093Z,4.35
2023-01-17T19:34:16.103Z,5.93
2023-01-17T19:36:43.042Z,6.30
2023-01-17T19:39:10.177Z,8.40
2023-01-17T19:41:42.296Z,10.67
2023-01-17T19:44:11.878Z,8.90
2023-01-17T19:46:38.839Z,8.52
2023-01-17T19:49:07.963Z,9.70
2023-01-17T19:51:35.972Z,8.43
2023-01-17T19:54:04.283Z,7.90
2023-01-17T19:56:31.253Z,7.63
2023-01-17T19:59:01.355Z,6.47
2023-01-17T20:01:31.503Z,7.00
2023-01-17T20:03:59.279Z,6.43
2023-01-17T20:06:31.082Z,8.93
2023-01-17T20:08:58.566Z,10.80
2023-01-17T20:11:26.283Z,11.60
2023-01-17T20:13:56.228Z,10.43
2023-01-17T20:16:24.927Z,8.65
2023-01-17T20:18:52.782Z,7.40
2023-01-17T20:21:22.963Z,8.23
2023-01-17T20:23:52.096Z,8.02
2023-01-17T20:26:25.560Z,8.20
2023-01-17T20:28:53.427Z,6.95
2023-01-17T20:31:23.051Z,6.70
2023-01-17T20:33:52.232Z,6.60
2023-01-17T20:36:21.003Z,5.97
2023-01-17T20:38:48.795Z,6.28
2023-01-17T20:41:24.003Z,7.03
2023-01-17T20:43:55.947Z,6.20
2023-01-17T20:46:25.960Z,8.27
2023-01-17T20:48:55.652Z,8.13
2023-01-17T20:51:24.909Z,7.68
2023-01-17T20:53:56.527Z,8.90
2023-01-17T20:56:24.251Z,7.57
2023-01-17T20:58:52.826Z,8.65
2023-01-17T21:01:21.772Z,7.30
2023-01-17T21:03:51.697Z,8.40
2023-01-17T21:06:20.330Z,7.30
2023-01-17T21:08:48.333Z,6.57
2023-01-17T21:11:23.524Z,5.65
2023-01-17T21:13:51.645Z,7.43
2023-01-17T21:16:21.206Z,7.78
2023-01-17T21:18:50.221Z,7.05
2023-01-17T21:21:22.164Z,7.00
2023-01-17T21:23:50.843Z,5.82
2023-01-17T21:26:19.128Z,8.40
2023-01-17T21:28:47.606Z,6.82
2023-01-17T21:31:23.107Z,6.50
2023-01-17T21:34:01.818Z,6.67
2023-01-17T21:36:32.643Z,6.10
2023-01-17T21:39:04.802Z,7.47
2023-01-17T21:41:41.904Z,8.18
2023-01-17T21:44:14.611Z,9.23
2023-01-17T21:46:41.500Z,8.40
2023-01-17T21:49:12.981Z,7.20
2023-01-17T21:51:53.391Z,8.82
2023-01-17T21:54:41.337Z,10.38
2023-01-17T21:57:27.703Z,10.73
2023-01-17T21:59:55.054Z,9.73
2023-01-17T22:02:22.341Z,11.98
2023-01-17T22:04:50.003Z,11.60
2023-01-17T22:07:16.847Z,13.18
2023-01-17T22:09:43.980Z,10.68
2023-01-17T22:12:11.199Z,11.93
2023-01-17T22:14:38.911Z,9.52
2023-01-17T22:17:05.782Z,9.60
2023-01-17T22:19:33.967Z,10.05
2023-01-17T22:22:01.175Z,11.68
2023-01-17T22:24:28.330Z,9.20
2023-01-17T22:26:55.080Z,10.43
2023-01-17T22:29:22.960Z,8.57
2023-01-17T22:31:49.796Z,9.30
2023-01-17T22:34:19.050Z,9.32
2023-01-17T22:36:45.868Z,8.53
2023-01-17T22:39:13.077Z,8.65
2023-01-17T22:41:39.921Z,8.95
2023-01-17T22:44:07.657Z,8.20
2023-01-17T22:46:37.387Z,9.48
2023-01-17T22:49:05.989Z,8.57
2023-01-17T22:51:32.830Z,7.72
2023-01-17T22:54:01.082Z,8.63
2023-01-17T22:56:31.075Z,7.57
2023-01-17T22:59:00.903Z,10.73
2023-01-17T23:01:30.269Z,10.53
2023-01-17T23:04:03.925Z,10.95
2023-01-17T23:06:36.385Z,9.77
2023-01-17T23:09:12.166Z,9.70
2023-01-17T23:11:46.273Z,8.25
2023-01-17T23:14:18.900Z,7.70
2023-01-17T23:17:05.815Z,7.75
2023-01-17T23:19:42.073Z,8.35
2023-01-17T23:22:19.310Z,8.20
2023-01-17T23:24:55.289Z,7.68
2023-01-17T23:27:45.397Z,7.03
2023-01-17T23:30:18.737Z,8.18
2023-01-17T23:32:51.139Z,9.05
2023-01-17T23:35:20.825Z,11.02
2023-01-17T23:38:06.600Z,11.00
2023-01-17T23:40:36.193Z,8.43
2023-01-17T23:43:22.401Z,8.05
2023-01-17T23:45:52.344Z,7.78
2023-01-17T23:48:19.795Z,8.23
2023-01-17T23:50:48.154Z,7.85
2023-01-17T23:53:22.484Z,9.27
2023-01-17T23:55:52.264Z,10.45
2023-01-17T23:58:20.312Z,8.88
